createdAt,value
2019-04-22T00:01:32.643Z,57.48
2019-04-22T00:04:07.006Z,57.67
2019-04-22T00:06:57.502Z,57.71
2019-04-22T00:09:34.117Z,58.03
2019-04-22T00:12:11.214Z,57.54
2019-04-22T00:14:24.914Z,57.69
2019-04-22T00:17:07.078Z,58.55
2019-04-22T00:19:36.031Z,58.43
2019-04-22T00:22:07.779Z,58.63
2019-04-22T00:24:31.880Z,58.64
2019-04-22T00:27:13.819Z,57.63
2019-04-22T00:32:11.362Z,59.57
2019-04-22T00:34:51.907Z,60.74
2019-04-22T00:37:23.274Z,60.27
2019-04-22T00:39:53.894Z,60.09
2019-04-22T00:42:22.111Z,61.14
2019-04-22T00:45:01.950Z,61.07
2019-04-22T00:47:27.833Z,61.74
2019-04-22T00:52:31.236Z,62.16
2019-04-22T00:55:04.113Z,62.51
2019-04-22T00:57:28.042Z,63.22
2019-04-22T01:00:01.785Z,63.06
2019-04-22T01:02:34.656Z,63.70
2019-04-22T01:05:04.045Z,63.37
2019-04-22T01:07:30.878Z,63.74
2019-04-22T01:10:09.977Z,63.56
2019-04-22T01:12:39.543Z,63.54
2019-04-22T01:15:09.454Z,64.02
2019-04-22T01:17:43.512Z,64.01
2019-04-22T01:20:24.600Z,64.47
2019-04-22T01:22:38.245Z,63.93
2019-04-22T01:25:08.822Z,63.45
2019-04-22T01:27:36.141Z,63.72
2019-04-22T01:30:03.651Z,63.67
2019-04-22T01:32:31.081Z,63.71
2019-04-22T01:35:08.399Z,64.67
2019-04-22T01:37:46.020Z,64.91
2019-04-22T01:40:25.337Z,65.08
2019-04-22T01:43:03.507Z,65.15
2019-04-22T01:45:29.550Z,64.95
2019-04-22T01:47:55.372Z,64.80
2019-04-22T01:50:25.808Z,64.64
2019-04-22T01:53:06.473Z,64.87
2019-04-22T01:55:31.128Z,64.82
2019-04-22T01:57:59.637Z,64.38
2019-04-22T02:00:35.958Z,65.20
2019-04-22T02:03:07.244Z,64.90
2019-04-22T02:05:35.735Z,65.16
2019-04-22T02:08:15.060Z,64.71
2019-04-22T02:10:44.591Z,64.24
2019-04-22T02:13:11.494Z,64.20
2019-04-22T02:15:45.817Z,63.65
2019-04-22T02:18:18.566Z,63.93
2019-04-22T02:20:42.972Z,63.90
2019-04-22T02:23:43.918Z,63.91
2019-04-22T02:36:22.771Z,64.50
2019-04-22T02:38:59.766Z,64.94
2019-04-22T02:44:10.648Z,65.77
2019-04-22T02:46:33.141Z,65.96
2019-04-22T02:51:21.979Z,66.49
2019-04-22T03:01:41.183Z,66.92
2019-04-22T03:04:09.329Z,67.19
2019-04-22T03:06:43.560Z,67.40
2019-04-22T03:09:12.699Z,67.60
2019-04-22T03:11:45.668Z,67.38
2019-04-22T03:19:26.559Z,67.77
2019-04-22T03:21:50.263Z,67.88
2019-04-22T03:26:50.416Z,68.07
2019-04-22T03:30:00.448Z,68.40
2019-04-22T03:32:40.407Z,68.12
2019-04-22T03:35:20.187Z,68.27
2019-04-22T03:37:36.375Z,68.78
2019-04-22T03:40:28.295Z,69.14
2019-04-22T03:42:10.044Z,68.93
2019-04-22T03:44:51.799Z,69.66
2019-04-22T03:47:38.698Z,69.68
2019-04-22T03:49:56.560Z,69.55
2019-04-22T03:57:49.040Z,70.17
2019-04-22T04:02:28.864Z,70.11
2019-04-22T04:04:49.483Z,70.43
2019-04-22T04:07:40.683Z,70.71
2019-04-22T04:12:42.023Z,71.01
2019-04-22T04:15:14.191Z,70.79
2019-04-22T04:23:00.552Z,70.85
2019-04-22T04:25:29.368Z,70.55
2019-04-22T04:30:30.104Z,70.16
2019-04-22T04:35:28.040Z,69.62
2019-04-22T04:37:55.695Z,69.11
2019-04-22T04:45:24.115Z,67.58
2019-04-22T04:50:18.472Z,65.50
2019-04-22T04:53:08.283Z,64.87
2019-04-22T04:58:06.107Z,64.87
2019-04-22T05:13:02.683Z,63.72
2019-04-22T05:15:29.747Z,64.14
2019-04-22T05:18:12.528Z,63.44
2019-04-22T05:21:02.945Z,63.13
2019-04-22T05:23:05.812Z,63.21
2019-04-22T05:25:33.793Z,62.64
2019-04-22T05:28:07.578Z,62.67
2019-04-22T05:30:40.666Z,62.43
2019-04-22T05:33:08.758Z,62.52
2019-04-22T05:35:39.454Z,62.37
2019-04-22T05:40:45.802Z,61.90
2019-04-22T05:43:16.316Z,62.24
2019-04-22T05:45:43.115Z,62.20
2019-04-22T05:48:23.184Z,61.69
2019-04-22T05:50:54.572Z,61.44
2019-04-22T05:53:19.517Z,61.29
2019-04-22T05:58:22.577Z,60.35
2019-04-22T06:03:46.149Z,59.09
2019-04-22T06:06:15.121Z,58.68
2019-04-22T06:08:45.581Z,58.57
2019-04-22T06:11:24.383Z,58.41
2019-04-22T06:13:46.522Z,57.86
2019-04-22T06:16:21.805Z,57.88
2019-04-22T06:19:01.648Z,57.28
2019-04-22T06:21:27.832Z,56.65
2019-04-22T06:29:02.193Z,56.32
2019-04-22T06:31:37.203Z,56.79
2019-04-22T06:34:06.029Z,56.01
2019-04-22T06:36:38.053Z,56.10
2019-04-22T06:39:10.538Z,55.49
2019-04-22T06:41:40.230Z,55.51
2019-04-22T06:44:22.705Z,53.90
2019-04-22T06:46:52.298Z,53.67
2019-04-22T06:49:26.794Z,53.83
2019-04-22T06:51:57.349Z,53.75
2019-04-22T06:56:57.817Z,53.11
2019-04-22T06:59:25.132Z,53.28
2019-04-22T07:04:30.380Z,53.54
2019-04-22T07:07:05.387Z,52.08
2019-04-22T07:09:41.085Z,51.97
2019-04-22T07:12:05.012Z,52.00
2019-04-22T07:14:37.330Z,51.70
2019-04-22T07:17:10.235Z,50.91
2019-04-22T07:19:40.349Z,51.19
2019-04-22T07:22:11.098Z,50.07
2019-04-22T07:29:54.267Z,48.81
2019-04-22T07:32:18.635Z,49.35
2019-04-22T07:34:50.442Z,48.65
2019-04-22T07:37:28.007Z,48.63
2019-04-22T07:39:45.990Z,47.62
2019-04-22T07:42:19.315Z,47.40
2019-04-22T07:44:53.216Z,46.32
2019-04-22T07:47:29.547Z,46.50
2019-04-22T07:49:59.177Z,45.20
2019-04-22T07:52:31.879Z,44.99
2019-04-22T07:54:58.524Z,45.13
2019-04-22T08:00:10.952Z,44.29
2019-04-22T08:02:37.691Z,45.14
2019-04-22T08:07:36.018Z,43.14
2019-04-22T08:10:21.242Z,42.76
2019-04-22T08:15:12.946Z,43.56
2019-04-22T08:17:56.414Z,42.31
2019-04-22T08:20:18.133Z,42.51
2019-04-22T08:22:50.783Z,42.11
2019-04-22T08:25:14.558Z,41.64
2019-04-22T08:27:51.914Z,41.36
2019-04-22T08:30:23.646Z,41.08
2019-04-22T08:32:48.810Z,41.58
2019-04-22T08:35:29.762Z,40.57
2019-04-22T08:38:06.927Z,40.57
2019-04-22T08:40:29.262Z,41.45
2019-04-22T08:43:07.484Z,41.45
2019-04-22T08:45:33.373Z,41.07
2019-04-22T08:47:54.841Z,39.57
2019-04-22T08:50:28.374Z,39.57
2019-04-22T08:53:02.093Z,39.10
2019-04-22T08:55:33.990Z,38.83
2019-04-22T08:58:16.704Z,38.59
2019-04-22T09:00:38.478Z,38.18
2019-04-22T09:03:08.860Z,38.28
2019-04-22T09:05:53.569Z,38.33
2019-04-22T09:13:10.203Z,38.09
2019-04-22T09:15:55.502Z,38.55
2019-04-22T09:18:14.746Z,38.66
2019-04-22T09:20:49.303Z,37.42
2019-04-22T09:23:18.292Z,36.95
2019-04-22T09:26:01.382Z,36.95
2019-04-22T09:28:17.501Z,36.82
2019-04-22T09:30:55.333Z,37.57
2019-04-22T09:33:20.918Z,37.05
2019-04-22T09:35:52.147Z,36.17
2019-04-22T09:38:31.224Z,36.52
2019-04-22T09:40:52.885Z,37.02
2019-04-22T09:43:31.616Z,36.88
2019-04-22T09:45:54.477Z,36.58
2019-04-22T09:48:30.190Z,34.81
2019-04-22T09:51:19.054Z,35.76
2019-04-22T09:53:32.192Z,35.13
2019-04-22T09:56:03.839Z,35.57
2019-04-22T09:58:33.587Z,36.27
2019-04-22T10:01:20.235Z,35.28
2019-04-22T10:03:45.144Z,34.97
2019-04-22T10:06:21.173Z,35.65
2019-04-22T10:08:52.741Z,35.46
2019-04-22T10:11:24.019Z,34.54
2019-04-22T10:13:47.573Z,34.88
2019-04-22T10:16:22.660Z,35.21
2019-04-22T10:18:46.046Z,33.77
2019-04-22T10:21:29.442Z,34.83
2019-04-22T10:23:54.677Z,33.77
2019-04-22T10:26:21.780Z,33.32
2019-04-22T10:28:55.303Z,33.08
2019-04-22T10:31:23.949Z,32.83
2019-04-22T10:33:46.900Z,31.40
2019-04-22T10:35:59.606Z,31.19
2019-04-22T10:38:30.423Z,30.50
2019-04-22T10:41:00.821Z,30.15
2019-04-22T10:43:30.395Z,28.41
2019-04-22T10:45:59.947Z,28.23
2019-04-22T10:48:30.297Z,27.63
2019-04-22T10:51:00.935Z,27.13
2019-04-22T10:53:31.288Z,26.38
2019-04-22T10:56:01.074Z,26.12
2019-04-22T10:58:30.859Z,25.65
2019-04-22T11:01:00.413Z,25.88
2019-04-22T11:03:31.158Z,24.88
2019-04-22T11:06:01.320Z,25.34
2019-04-22T11:08:38.509Z,24.81
2019-04-22T11:11:16.195Z,24.20
2019-04-22T11:13:35.837Z,24.29
2019-04-22T11:16:05.611Z,23.91
2019-04-22T11:18:35.785Z,23.96
2019-04-22T11:21:05.553Z,23.99
2019-04-22T11:23:36.148Z,24.53
2019-04-22T11:26:08.143Z,23.98
2019-04-22T11:28:38.150Z,23.50
2019-04-22T11:31:08.249Z,24.18
2019-04-22T11:33:38.570Z,23.91
2019-04-22T11:36:08.112Z,23.96
2019-04-22T11:38:45.015Z,23.07
2019-04-22T11:41:09.252Z,22.66
2019-04-22T11:43:39.051Z,23.31
2019-04-22T11:46:09.368Z,22.21
2019-04-22T11:48:40.115Z,21.77
2019-04-22T11:51:09.868Z,22.22
2019-04-22T11:53:40.740Z,22.46
2019-04-22T11:56:11.145Z,22.48
2019-04-22T11:58:40.793Z,22.66
2019-04-22T12:01:10.876Z,22.78
2019-04-22T12:03:40.321Z,22.90
2019-04-22T12:06:10.339Z,22.23
2019-04-22T12:08:39.896Z,22.68
2019-04-22T12:11:09.925Z,21.52
2019-04-22T12:13:42.070Z,21.33
2019-04-22T12:16:11.814Z,21.17
2019-04-22T12:18:41.175Z,20.67
2019-04-22T12:21:10.949Z,20.97
2019-04-22T12:23:41.265Z,21.31
2019-04-22T12:26:14.092Z,21.40
2019-04-22T12:28:43.006Z,22.52
2019-04-22T12:31:13.564Z,21.12
2019-04-22T12:33:43.413Z,21.52
2019-04-22T12:36:13.121Z,22.50
2019-04-22T12:38:42.479Z,22.39
2019-04-22T12:41:13.882Z,22.36
2019-04-22T12:43:43.263Z,22.36
2019-04-22T12:46:14.585Z,22.29
2019-04-22T12:48:45.382Z,23.04
2019-04-22T12:51:15.411Z,23.90
2019-04-22T12:53:46.348Z,24.31
2019-04-22T12:56:17.335Z,23.94
2019-04-22T12:58:47.678Z,23.84
2019-04-22T13:01:17.142Z,24.27
2019-04-22T13:03:46.580Z,24.13
2019-04-22T13:06:17.348Z,24.89
2019-04-22T13:08:47.700Z,23.77
2019-04-22T13:11:21.359Z,21.70
2019-04-22T13:13:49.358Z,21.96
2019-04-22T13:16:18.856Z,21.98
2019-04-22T13:18:54.871Z,22.27
2019-04-22T13:21:20.516Z,22.80
2019-04-22T13:23:50.808Z,22.27
2019-04-22T13:26:21.154Z,22.77
2019-04-22T13:28:51.471Z,22.66
2019-04-22T13:31:22.582Z,22.71
2019-04-22T13:33:55.201Z,22.52
2019-04-22T13:36:25.552Z,22.45
2019-04-22T13:38:55.225Z,22.88
2019-04-22T13:41:35.369Z,23.09
2019-04-22T13:43:56.151Z,24.13
2019-04-22T13:46:31.157Z,24.60
2019-04-22T13:49:24.007Z,24.78
2019-04-22T13:57:07.887Z,27.30
2019-04-22T13:59:10.175Z,27.43
2019-04-22T14:02:01.839Z,27.20
2019-04-22T14:04:34.669Z,27.50
2019-04-22T14:07:05.168Z,28.46
2019-04-22T14:09:35.963Z,28.58
2019-04-22T14:12:07.337Z,28.60
2019-04-22T14:14:39.166Z,28.89
2019-04-22T14:17:09.014Z,28.90
2019-04-22T14:19:39.124Z,28.37
2019-04-22T14:22:09.632Z,27.81
2019-04-22T14:24:40.504Z,27.30
2019-04-22T14:27:22.369Z,27.68
2019-04-22T14:29:41.937Z,28.80
2019-04-22T14:32:17.828Z,28.79
2019-04-22T14:34:42.841Z,29.37
2019-04-22T14:37:14.399Z,29.38
2019-04-22T14:39:44.108Z,29.29
2019-04-22T14:42:36.331Z,28.81
2019-04-22T14:45:18.131Z,28.88
2019-04-22T14:47:41.117Z,29.19
2019-04-22T14:50:16.071Z,29.91
2019-04-22T14:52:43.821Z,30.98
2019-04-22T14:55:01.922Z,31.68
2019-04-22T14:57:23.364Z,32.32
2019-04-22T14:59:53.869Z,32.99
2019-04-22T15:02:23.712Z,33.38
2019-04-22T15:04:54.207Z,33.48
2019-04-22T15:07:24.993Z,33.83
2019-04-22T15:09:55.711Z,34.02
2019-04-22T15:12:31.093Z,34.14
2019-04-22T15:14:57.592Z,34.51
2019-04-22T15:17:42.908Z,34.88
2019-04-22T15:20:31.895Z,34.67
2019-04-22T15:23:02.324Z,34.84
2019-04-22T15:25:32.514Z,35.29
2019-04-22T15:28:03.578Z,35.40
2019-04-22T15:30:33.287Z,35.18
2019-04-22T15:33:03.339Z,35.59
2019-04-22T15:35:33.594Z,36.00
2019-04-22T15:38:04.476Z,36.26
2019-04-22T15:40:34.630Z,36.44
2019-04-22T15:43:04.712Z,36.63
2019-04-22T15:45:34.939Z,36.08
2019-04-22T15:48:06.017Z,36.11
2019-04-22T15:50:36.917Z,36.51
2019-04-22T15:53:07.699Z,36.64
2019-04-22T15:55:38.803Z,37.11
2019-04-22T15:58:10.004Z,37.65
2019-04-22T16:00:51.684Z,38.40
2019-04-22T16:03:12.495Z,38.85
2019-04-22T16:05:42.015Z,39.40
2019-04-22T16:08:12.821Z,39.46
2019-04-22T16:10:43.859Z,40.06
2019-04-22T16:13:20.680Z,40.04
2019-04-22T16:15:44.637Z,40.35
2019-04-22T16:18:15.078Z,40.21
2019-04-22T16:20:46.177Z,40.67
2019-04-22T16:23:40.634Z,40.96
2019-04-22T16:26:15.633Z,41.35
2019-04-22T16:28:45.230Z,41.70
2019-04-22T16:31:15.410Z,42.14
2019-04-22T16:33:47.678Z,42.68
2019-04-22T16:36:16.707Z,42.90
2019-04-22T16:38:46.885Z,43.04
2019-04-22T16:41:17.041Z,43.01
2019-04-22T16:43:46.803Z,43.11
2019-04-22T16:46:16.114Z,43.38
2019-04-22T16:48:45.559Z,43.64
2019-04-22T16:51:16.163Z,43.65
2019-04-22T16:53:47.373Z,43.58
2019-04-22T16:56:17.194Z,43.77
2019-04-22T16:58:46.670Z,44.04
2019-04-22T17:01:34.793Z,44.28
2019-04-22T17:04:18.778Z,44.57
2019-04-22T17:06:49.787Z,44.54
2019-04-22T17:09:19.659Z,44.98
2019-04-22T17:11:49.892Z,45.13
2019-04-22T17:14:29.588Z,45.65
2019-04-22T17:16:50.728Z,45.65
2019-04-22T17:19:21.652Z,46.14
2019-04-22T17:21:51.261Z,46.26
2019-04-22T17:24:21.620Z,46.59
2019-04-22T17:26:52.581Z,46.87
2019-04-22T17:29:22.786Z,46.93
2019-04-22T17:31:58.342Z,47.24
2019-04-22T17:34:23.512Z,47.37
2019-04-22T17:36:53.266Z,47.80
2019-04-22T17:39:36.008Z,48.00
2019-04-22T17:42:18.700Z,48.27
2019-04-22T17:44:48.473Z,48.31
2019-04-22T17:47:30.243Z,48.76
2019-04-22T17:50:13.252Z,48.85
2019-04-22T17:52:42.057Z,49.29
2019-04-22T17:55:11.329Z,49.47
2019-04-22T17:57:39.346Z,49.72
2019-04-22T18:00:13.063Z,49.79
2019-04-22T18:02:43.382Z,49.97
2019-04-22T18:05:02.010Z,50.12
2019-04-22T18:07:48.800Z,50.36
2019-04-22T18:13:14.377Z,50.48
2019-04-22T18:15:19.407Z,50.60
2019-04-22T18:17:55.160Z,50.47
2019-04-22T18:20:17.474Z,50.46
2019-04-22T18:22:49.045Z,50.41
2019-04-22T18:25:20.163Z,50.91
2019-04-22T18:28:09.133Z,50.75
2019-04-22T18:30:21.927Z,50.94
2019-04-22T18:33:00.287Z,51.12
2019-04-22T18:35:32.421Z,51.26
2019-04-22T18:38:11.287Z,51.16
2019-04-22T18:40:36.288Z,51.58
2019-04-22T18:43:11.886Z,51.72
2019-04-22T18:48:03.964Z,51.78
2019-04-22T18:50:53.604Z,52.27
2019-04-22T18:53:29.966Z,52.49
2019-04-22T18:56:20.595Z,52.49
2019-04-22T18:58:46.362Z,52.49
2019-04-22T19:01:01.897Z,52.75
2019-04-22T19:03:42.729Z,53.08
2019-04-22T19:06:39.977Z,53.26
2019-04-22T19:08:55.652Z,53.55
2019-04-22T19:11:41.020Z,53.64
2019-04-22T19:14:06.021Z,53.97
2019-04-22T19:19:20.951Z,54.02
2019-04-22T19:21:35.501Z,54.72
2019-04-22T19:24:00.333Z,55.04
2019-04-22T19:26:44.296Z,55.37
2019-04-22T19:29:06.862Z,55.33
2019-04-22T19:31:34.908Z,55.24
2019-04-22T19:34:10.627Z,55.46
2019-04-22T19:36:43.627Z,55.44
2019-04-22T19:39:09.140Z,55.77
2019-04-22T19:41:42.212Z,56.82
2019-04-22T19:44:13.215Z,57.58
2019-04-22T19:46:52.937Z,58.02
2019-04-22T19:49:24.410Z,58.31
2019-04-22T19:51:55.918Z,58.51
2019-04-22T19:54:19.131Z,58.57
2019-04-22T19:56:40.333Z,59.13
2019-04-22T19:59:14.877Z,59.81
2019-04-22T20:02:09.630Z,60.05
2019-04-22T20:04:52.651Z,60.25
2019-04-22T20:07:21.222Z,60.27
2019-04-22T20:09:55.159Z,60.31
2019-04-22T20:12:21.832Z,60.56
2019-04-22T20:14:55.652Z,60.71
2019-04-22T20:17:26.798Z,61.10
2019-04-22T20:20:06.574Z,61.52
2019-04-22T20:22:30.208Z,61.64
2019-04-22T20:24:52.706Z,61.98
2019-04-22T20:27:30.359Z,62.03
2019-04-22T20:30:04.710Z,62.28
2019-04-22T20:32:32.724Z,62.72
2019-04-22T20:35:07.956Z,62.68
2019-04-22T20:37:38.599Z,62.70
2019-04-22T20:40:05.716Z,62.81
2019-04-22T20:45:09.626Z,62.73
2019-04-22T20:47:35.749Z,62.81
2019-04-22T20:50:12.193Z,63.00
2019-04-22T20:55:08.876Z,63.05
2019-04-22T20:57:48.008Z,63.42
2019-04-22T21:00:18.735Z,63.34
2019-04-22T21:02:36.250Z,63.48
2019-04-22T21:05:13.524Z,63.60
2019-04-22T21:07:48.379Z,63.53
2019-04-22T21:10:17.198Z,63.40
2019-04-22T21:12:43.707Z,63.56
2019-04-22T21:15:26.751Z,63.29
2019-04-22T21:17:53.991Z,63.32
2019-04-22T21:20:33.292Z,63.26
2019-04-22T21:22:58.324Z,63.36
2019-04-22T21:25:20.799Z,63.37
2019-04-22T21:28:06.197Z,63.30
2019-04-22T21:30:32.921Z,63.25
2019-04-22T21:32:57.549Z,63.23
2019-04-22T21:36:03.110Z,63.52
2019-04-22T21:38:08.392Z,63.34
2019-04-22T21:40:35.559Z,63.33
2019-04-22T21:43:12.174Z,63.43
2019-04-22T21:45:33.288Z,63.68
2019-04-22T21:48:24.623Z,63.65
2019-04-22T21:50:51.533Z,63.40
2019-04-22T21:53:25.240Z,63.45
2019-04-22T21:55:58.600Z,63.30
2019-04-22T21:58:36.293Z,63.07
2019-04-22T22:01:21.761Z,63.07
2019-04-22T22:03:50.315Z,63.05
2019-04-22T22:06:14.080Z,62.94
2019-04-22T22:08:51.315Z,62.81
2019-04-22T22:11:18.864Z,62.47
2019-04-22T22:13:50.541Z,62.60
2019-04-22T22:16:20.330Z,62.36
2019-04-22T22:18:59.224Z,62.36
2019-04-22T22:21:40.661Z,62.55
2019-04-22T22:24:01.302Z,62.53
2019-04-22T22:26:26.494Z,62.58
2019-04-22T22:29:05.341Z,62.34
2019-04-22T22:31:34.624Z,62.15
2019-04-22T22:34:08.062Z,62.00
2019-04-22T22:36:29.586Z,62.24
2019-04-22T22:38:58.524Z,62.07
2019-04-22T22:41:16.056Z,61.98
2019-04-22T22:43:50.505Z,62.07
2019-04-22T22:46:29.346Z,62.15
2019-04-22T22:49:09.880Z,62.15
2019-04-22T22:51:49.968Z,62.12
2019-04-22T22:54:12.091Z,62.23
2019-04-22T22:56:48.605Z,62.16
2019-04-22T22:59:20.358Z,62.12
2019-04-22T23:01:46.743Z,62.20
2019-04-22T23:04:17.990Z,62.08
2019-04-22T23:06:53.185Z,62.28
2019-04-22T23:09:19.565Z,62.10
2019-04-22T23:14:20.865Z,61.94
2019-04-22T23:16:40.860Z,61.88
2019-04-22T23:19:06.796Z,61.75
2019-04-22T23:21:41.714Z,61.71
2019-04-22T23:24:29.427Z,61.83
2019-04-22T23:27:14.592Z,61.69
2019-04-22T23:29:45.921Z,61.76
2019-04-22T23:32:23.799Z,61.83
2019-04-22T23:35:08.045Z,61.85
2019-04-22T23:37:35.671Z,61.72
2019-04-22T23:40:16.059Z,61.80
2019-04-22T23:42:46.264Z,61.92
2019-04-22T23:45:13.874Z,61.64
2019-04-22T23:47:39.308Z,61.54
2019-04-22T23:50:19.653Z,61.49
2019-04-22T23:52:58.749Z,61.59
2019-04-22T23:55:33.828Z,61.38
2019-04-22T23:58:03.492Z,61.56
